Time;durP1;ratioP1;P1;durP2;ratioP2;P2;SDS_P1;SDS_P2;PMS_P1;PMS_P2;Temp;Humidity;BMP_temperature;BMP_pressure;BME280_temperature;BME280_humidity;BME280_pressure;Samples;Min_cycle;Max_cycle;Signal;HPM_P1;HPM_P2
2021/04/03 00:02:16;;;;;;;5.75;5.10;;;6.50;56.20;;;;;;5033028;28;20200;-85
2021/04/03 00:04:44;;;;;;;6.85;5.93;;;6.30;56.10;;;;;;5055800;28;20262;-84
2021/04/03 00:07:12;;;;;;;17.05;5.40;;;6.30;56.40;;;;;;5053586;28;20654;-84
2021/04/03 00:09:40;;;;;;;7.20;5.20;;;6.30;56.60;;;;;;5051605;28;20211;-84
2021/04/03 00:12:09;;;;;;;8.77;5.53;;;6.50;56.20;;;;;;5047232;28;20292;-84
2021/04/03 00:14:35;;;;;;;8.52;6.78;;;6.60;55.50;;;;;;5043489;28;20204;-84
2021/04/03 00:17:02;;;;;;;7.88;5.95;;;6.60;55.20;;;;;;5033264;28;20197;-84
2021/04/03 00:19:29;;;;;;;10.63;5.78;;;6.70;55.20;;;;;;5040837;28;20254;-84
2021/04/03 00:21:55;;;;;;;10.93;5.63;;;6.80;55.00;;;;;;5047782;28;20199;-84
2021/04/03 00:24:22;;;;;;;8.65;6.38;;;6.90;55.10;;;;;;5032917;28;20616;-84
2021/04/03 00:26:49;;;;;;;7.72;5.88;;;6.90;54.70;;;;;;5032815;28;20227;-84
2021/04/03 00:29:15;;;;;;;9.25;6.10;;;6.80;54.60;;;;;;5042739;28;20200;-84
2021/04/03 00:31:42;;;;;;;8.98;5.57;;;6.70;54.90;;;;;;5034792;28;20209;-84
2021/04/03 00:34:08;;;;;;;6.70;4.95;;;6.60;55.30;;;;;;5041860;28;20628;-84
2021/04/03 00:36:35;;;;;;;6.28;5.13;;;6.50;55.40;;;;;;5042391;28;20203;-84
2021/04/03 00:39:01;;;;;;;11.15;5.25;;;6.50;55.70;;;;;;5050987;28;20235;-84
2021/04/03 00:41:27;;;;;;;7.25;5.50;;;6.50;55.70;;;;;;5033083;28;20576;-83
2021/04/03 00:43:55;;;;;;;8.32;5.10;;;6.50;55.40;;;;;;5045619;28;20815;-84
2021/04/03 00:46:21;;;;;;;7.32;5.60;;;6.60;55.40;;;;;;5046359;28;20196;-84
2021/04/03 00:48:48;;;;;;;12.48;6.55;;;6.70;55.10;;;;;;5052140;28;20204;-84
2021/04/03 00:51:15;;;;;;;8.93;6.32;;;6.70;54.20;;;;;;5050419;28;20314;-84
2021/04/03 00:53:41;;;;;;;7.75;5.55;;;6.50;54.20;;;;;;5032176;28;20255;-84
2021/04/03 00:56:09;;;;;;;7.40;5.85;;;6.40;54.30;;;;;;5043692;28;20572;-84
2021/04/03 00:58:35;;;;;;;5.50;4.85;;;6.40;54.40;;;;;;5049281;28;20242;-84
2021/04/03 01:01:04;;;;;;;7.88;5.72;;;6.40;53.90;;;;;;5033426;28;20200;-83
2021/04/03 01:03:32;;;;;;;6.50;5.35;;;6.30;54.10;;;;;;5052956;28;20236;-84
2021/04/03 01:05:59;;;;;;;11.38;5.47;;;6.20;54.00;;;;;;5044906;28;20315;-84
2021/04/03 01:08:27;;;;;;;8.70;5.82;;;6.20;54.10;;;;;;5040554;28;20641;-84
2021/04/03 01:10:56;;;;;;;7.80;5.40;;;6.50;54.20;;;;;;5035656;28;20205;-84
2021/04/03 01:13:42;;;;;;;8.65;5.55;;;6.30;53.40;;;;;;5031932;28;20327;-84
2021/04/03 01:16:16;;;;;;;6.70;5.35;;;6.00;53.60;;;;;;5035159;28;20620;-84
2021/04/03 01:19:10;;;;;;;8.13;6.15;;;5.90;53.90;;;;;;5031605;28;20205;-84
2021/04/03 01:22:04;;;;;;;6.57;5.65;;;6.00;54.40;;;;;;5032025;28;20284;-84
2021/04/03 01:24:48;;;;;;;7.43;5.85;;;6.20;54.20;;;;;;5029988;28;20217;-84
2021/04/03 01:27:20;;;;;;;8.75;5.70;;;6.20;53.80;;;;;;5030328;28;20934;-85
2021/04/03 01:30:04;;;;;;;9.73;5.93;;;5.70;53.80;;;;;;5041819;28;20569;-84
2021/04/03 01:32:39;;;;;;;7.63;5.18;;;5.80;54.50;;;;;;5043129;28;20287;-82
2021/04/03 01:35:08;;;;;;;6.28;5.05;;;6.10;54.40;;;;;;5051261;28;20609;-84
2021/04/03 01:37:43;;;;;;;8.52;4.60;;;6.30;54.10;;;;;;5041219;28;20212;-84
2021/04/03 01:40:14;;;;;;;9.00;5.47;;;6.30;53.40;;;;;;5044606;28;20677;-84
2021/04/03 01:42:45;;;;;;;5.72;4.95;;;6.10;53.40;;;;;;5031001;28;20197;-84
2021/04/03 01:45:14;;;;;;;6.95;5.57;;;6.20;53.50;;;;;;5030669;28;20228;-84
2021/04/03 01:47:43;;;;;;;7.22;5.07;;;6.30;53.80;;;;;;5039441;28;20192;-84
2021/04/03 01:50:12;;;;;;;6.05;5.05;;;6.30;53.50;;;;;;5044870;28;20595;-84
2021/04/03 01:52:41;;;;;;;6.95;5.43;;;6.60;53.60;;;;;;5050991;28;20230;-84
2021/04/03 01:55:12;;;;;;;9.30;5.13;;;6.30;53.00;;;;;;5056605;28;20245;-84
2021/04/03 01:57:48;;;;;;;6.47;5.15;;;6.20;53.20;;;;;;5060703;28;20606;-84
2021/04/03 02:00:23;;;;;;;6.55;5.28;;;6.50;53.40;;;;;;5045483;28;20216;-84
2021/04/03 02:02:53;;;;;;;6.55;4.93;;;6.10;52.70;;;;;;5031166;28;20630;-83
2021/04/03 02:05:22;;;;;;;7.40;5.30;;;6.30;53.30;;;;;;5043292;28;20235;-84
2021/04/03 02:07:51;;;;;;;7.55;5.35;;;6.30;53.20;;;;;;5042179;28;20558;-84
2021/04/03 02:10:22;;;;;;;8.10;5.82;;;6.10;52.90;;;;;;5039514;28;20235;-84
2021/04/03 02:12:49;;;;;;;10.45;6.10;;;6.10;53.60;;;;;;5062442;28;20203;-84
2021/04/03 02:15:18;;;;;;;5.95;4.13;;;5.80;53.50;;;;;;5039180;28;20208;-84
2021/04/03 02:17:48;;;;;;;6.60;5.90;;;5.60;53.60;;;;;;5030649;28;20232;-84
2021/04/03 02:20:15;;;;;;;10.82;6.05;;;5.80;54.20;;;;;;5034605;28;20193;-84
2021/04/03 02:22:43;;;;;;;8.15;5.10;;;5.80;53.90;;;;;;5040418;28;20200;-84
2021/04/03 02:25:12;;;;;;;6.63;5.32;;;5.60;54.10;;;;;;5035519;28;20575;-84
2021/04/03 02:27:38;;;;;;;6.90;5.18;;;5.40;54.70;;;;;;5045667;28;20200;-84
2021/04/03 02:30:15;;;;;;;7.07;4.85;;;5.50;54.90;;;;;;5051965;28;20203;-84
2021/04/03 02:32:42;;;;;;;7.93;5.45;;;5.60;55.10;;;;;;5048073;28;20200;-85
2021/04/03 02:35:11;;;;;;;9.18;5.15;;;5.70;54.80;;;;;;5035457;28;20196;-84
2021/04/03 02:37:38;;;;;;;8.48;6.13;;;5.40;54.90;;;;;;5039454;28;20196;-84
2021/04/03 02:40:07;;;;;;;6.18;5.05;;;5.50;55.30;;;;;;5038104;28;20205;-84
2021/04/03 02:42:37;;;;;;;11.43;4.90;;;5.70;55.20;;;;;;5030126;28;20560;-84
2021/04/03 02:45:09;;;;;;;8.00;5.03;;;5.70;55.10;;;;;;5036097;28;20221;-84
2021/04/03 02:47:40;;;;;;;8.63;5.55;;;5.70;55.30;;;;;;5030254;28;20271;-84
2021/04/03 02:50:09;;;;;;;11.80;5.35;;;5.60;55.30;;;;;;5040994;28;20204;-84
2021/04/03 02:52:39;;;;;;;9.77;5.70;;;5.50;55.40;;;;;;5039660;28;20720;-84
2021/04/03 02:55:07;;;;;;;7.05;5.18;;;5.40;55.40;;;;;;5043651;28;20562;-84
2021/04/03 02:57:37;;;;;;;8.10;5.25;;;5.40;55.70;;;;;;5041127;28;20216;-84
2021/04/03 03:00:06;;;;;;;13.98;5.40;;;5.30;56.10;;;;;;5035468;28;20201;-84
2021/04/03 03:02:34;;;;;;;6.70;4.95;;;5.30;56.40;;;;;;5043202;28;20618;-84
2021/04/03 03:05:03;;;;;;;8.90;5.25;;;5.30;56.20;;;;;;5057775;28;20616;-84
2021/04/03 03:07:33;;;;;;;9.65;5.32;;;5.50;56.10;;;;;;5030321;28;20216;-84
2021/04/03 03:10:01;;;;;;;7.03;5.00;;;5.50;55.70;;;;;;5033137;28;20216;-84
2021/04/03 03:12:29;;;;;;;6.05;4.28;;;5.60;55.30;;;;;;5040263;28;20282;-84
2021/04/03 03:14:57;;;;;;;4.40;4.00;;;5.40;55.30;;;;;;5043125;28;20222;-84
2021/04/03 03:17:25;;;;;;;6.40;5.13;;;5.30;55.40;;;;;;5049810;28;20700;-84
2021/04/03 03:19:51;;;;;;;6.20;5.00;;;5.40;55.90;;;;;;5048259;28;20195;-83
2021/04/03 03:22:18;;;;;;;7.25;5.22;;;5.50;55.80;;;;;;5049189;28;20447;-84
2021/04/03 03:24:46;;;;;;;7.55;4.82;;;5.60;55.50;;;;;;5043016;28;20232;-84
2021/04/03 03:27:13;;;;;;;8.88;5.30;;;5.60;55.30;;;;;;5029498;28;20227;-85
2021/04/03 03:29:42;;;;;;;5.10;3.75;;;5.40;55.50;;;;;;5034630;28;20203;-84
2021/04/03 03:32:09;;;;;;;6.57;4.72;;;5.30;55.80;;;;;;5049671;28;20287;-84
2021/04/03 03:34:36;;;;;;;6.82;4.70;;;5.10;56.10;;;;;;5048228;28;20280;-84
2021/04/03 03:37:04;;;;;;;6.53;4.57;;;5.10;55.90;;;;;;5043242;28;20197;-84
2021/04/03 03:39:31;;;;;;;3.88;3.22;;;5.00;56.30;;;;;;5035085;28;20194;-84
2021/04/03 03:42:01;;;;;;;9.27;5.45;;;5.00;56.30;;;;;;5045727;28;20529;-84
2021/04/03 03:44:31;;;;;;;7.13;3.72;;;5.00;55.90;;;;;;5038008;28;20228;-84
2021/04/03 03:46:58;;;;;;;5.15;4.35;;;4.90;56.10;;;;;;5031707;28;20204;-84
2021/04/03 03:49:25;;;;;;;7.90;4.07;;;4.80;56.20;;;;;;5037437;28;20204;-84
2021/04/03 03:51:52;;;;;;;6.75;5.00;;;4.60;56.60;;;;;;5045962;28;20197;-84
2021/04/03 03:54:19;;;;;;;5.78;4.25;;;4.40;57.40;;;;;;5030387;28;20601;-84
2021/04/03 03:56:46;;;;;;;5.57;4.38;;;4.40;57.30;;;;;;5049453;28;20196;-84
2021/04/03 03:59:13;;;;;;;7.55;4.57;;;4.60;57.30;;;;;;5048372;28;20730;-84
2021/04/03 04:01:41;;;;;;;8.02;4.65;;;4.70;56.70;;;;;;5045379;28;20667;-84
2021/04/03 04:04:08;;;;;;;7.47;5.18;;;4.50;56.80;;;;;;5051069;28;20200;-84
2021/04/03 04:06:34;;;;;;;6.00;4.25;;;4.50;57.20;;;;;;5031476;28;20193;-84
2021/04/03 04:09:03;;;;;;;6.03;4.40;;;4.40;57.30;;;;;;5044106;28;20208;-83
2021/04/03 04:11:29;;;;;;;4.70;3.80;;;4.20;57.50;;;;;;5035151;28;20189;-84
2021/04/03 04:13:56;;;;;;;7.45;4.72;;;4.30;57.90;;;;;;5038798;28;20207;-84
2021/04/03 04:16:22;;;;;;;7.68;4.95;;;4.40;57.90;;;;;;5038642;28;20242;-84
2021/04/03 04:18:49;;;;;;;8.93;4.47;;;4.10;57.80;;;;;;5033083;28;20207;-84
2021/04/03 04:21:17;;;;;;;6.50;3.40;;;4.00;58.00;;;;;;5037959;28;20224;-84
2021/04/03 04:23:44;;;;;;;6.18;4.55;;;4.00;57.90;;;;;;5051546;28;20573;-84
2021/04/03 04:26:11;;;;;;;9.10;3.75;;;4.10;58.10;;;;;;5032164;28;20236;-84
2021/04/03 04:28:37;;;;;;;7.90;5.00;;;4.20;58.00;;;;;;5052606;28;20204;-84
2021/04/03 04:31:04;;;;;;;4.13;3.58;;;4.10;58.10;;;;;;5034070;28;20197;-84
2021/04/03 04:33:30;;;;;;;4.75;4.28;;;4.00;58.10;;;;;;5047728;28;20200;-84
2021/04/03 04:35:58;;;;;;;7.70;5.03;;;4.00;58.10;;;;;;5039222;28;20220;-84
2021/04/03 04:38:24;;;;;;;4.57;4.15;;;4.10;58.30;;;;;;5049175;28;20196;-84
2021/04/03 04:40:50;;;;;;;8.70;3.90;;;4.30;58.30;;;;;;5049738;28;20249;-84
2021/04/03 04:43:19;;;;;;;4.57;4.07;;;4.30;57.90;;;;;;5052320;28;20192;-84
2021/04/03 04:45:45;;;;;;;10.63;5.40;;;4.10;58.10;;;;;;5034369;28;20295;-84
2021/04/03 04:48:12;;;;;;;8.23;4.30;;;4.00;58.40;;;;;;5033010;28;20204;-84
2021/04/03 04:50:38;;;;;;;7.05;4.28;;;4.10;58.70;;;;;;5033779;28;20651;-84
2021/04/03 04:53:06;;;;;;;6.90;4.60;;;4.00;58.60;;;;;;5045594;28;20259;-84
2021/04/03 04:55:33;;;;;;;4.80;4.05;;;4.00;59.00;;;;;;5036897;28;20208;-84
2021/04/03 04:57:59;;;;;;;5.35;4.85;;;4.00;58.80;;;;;;5044515;28;20610;-84
2021/04/03 05:00:26;;;;;;;10.07;4.93;;;4.40;58.50;;;;;;5044098;28;20208;-85
2021/04/03 05:02:52;;;;;;;8.63;4.53;;;4.40;57.80;;;;;;5048339;28;20256;-84
2021/04/03 05:05:19;;;;;;;6.40;4.22;;;4.30;58.00;;;;;;5060716;28;20946;-84
2021/04/03 05:07:46;;;;;;;4.68;3.70;;;4.30;58.40;;;;;;5037343;28;20247;-84
2021/04/03 05:10:14;;;;;;;5.75;4.80;;;4.50;57.70;;;;;;5035783;28;20193;-84
2021/04/03 05:12:47;;;;;;;12.43;4.35;;;4.50;57.80;;;;;;5047889;28;20251;-85
2021/04/03 05:15:13;;;;;;;8.90;4.80;;;4.50;57.50;;;;;;5035458;28;20229;-85
2021/04/03 05:17:40;;;;;;;6.22;4.10;;;4.70;57.60;;;;;;5052576;28;20202;-85
2021/04/03 05:20:08;;;;;;;4.70;3.80;;;4.70;57.30;;;;;;5062138;28;20532;-85
2021/04/03 05:22:34;;;;;;;6.65;4.60;;;4.50;57.70;;;;;;5058757;28;20203;-84
2021/04/03 05:25:01;;;;;;;6.55;4.03;;;4.50;57.70;;;;;;5058811;28;20202;-85
2021/04/03 05:27:28;;;;;;;5.80;4.32;;;4.50;57.40;;;;;;5054474;28;20234;-84
2021/04/03 05:29:55;;;;;;;6.55;4.35;;;4.50;57.60;;;;;;5056923;28;20196;-84
2021/04/03 05:32:24;;;;;;;5.72;4.50;;;4.40;57.90;;;;;;5060062;28;20199;-84
2021/04/03 05:34:51;;;;;;;5.13;4.10;;;4.40;58.30;;;;;;5054735;28;20340;-86
2021/04/03 05:37:17;;;;;;;4.85;3.88;;;4.50;58.00;;;;;;5062921;28;20592;-84
2021/04/03 05:39:44;;;;;;;5.22;3.75;;;4.50;58.00;;;;;;5057935;28;20205;-84
2021/04/03 05:42:19;;;;;;;4.93;3.80;;;4.60;57.80;;;;;;5060098;28;20199;-86
2021/04/03 05:44:48;;;;;;;5.72;4.53;;;4.60;58.00;;;;;;5058426;28;20291;-86
2021/04/03 05:47:15;;;;;;;4.40;3.40;;;4.80;57.70;;;;;;5032543;28;20197;-86
2021/04/03 05:49:42;;;;;;;4.88;4.00;;;4.90;57.40;;;;;;5041703;28;20238;-86
2021/04/03 05:52:10;;;;;;;10.05;3.28;;;4.90;57.20;;;;;;5038507;28;20224;-86
2021/04/03 05:54:37;;;;;;;5.35;3.42;;;4.90;56.70;;;;;;5056487;28;20227;-86
2021/04/03 05:57:16;;;;;;;5.22;3.45;;;4.80;56.90;;;;;;5059957;28;20189;-87
2021/04/03 05:59:43;;;;;;;3.75;3.30;;;4.90;57.20;;;;;;5054835;28;20207;-86
2021/04/03 06:02:11;;;;;;;3.85;3.40;;;5.00;57.10;;;;;;5046810;28;20200;-86
2021/04/03 06:04:37;;;;;;;4.13;3.40;;;5.20;56.70;;;;;;5057018;28;20208;-85
2021/04/03 06:07:04;;;;;;;4.53;3.80;;;5.30;56.50;;;;;;5048157;28;20204;-86
2021/04/03 06:09:31;;;;;;;4.57;3.63;;;5.70;56.50;;;;;;5041101;28;21019;-86
2021/04/03 06:11:58;;;;;;;5.30;4.15;;;6.00;56.00;;;;;;5049709;28;20211;-86
2021/04/03 06:14:24;;;;;;;3.97;3.20;;;6.00;55.60;;;;;;5038378;28;20220;-86
2021/04/03 06:16:51;;;;;;;4.55;3.60;;;5.70;55.40;;;;;;5044108;28;20196;-85
2021/04/03 06:19:20;;;;;;;4.00;3.55;;;5.80;55.80;;;;;;5043221;28;20184;-85
2021/04/03 06:21:54;;;;;;;6.13;3.33;;;5.40;55.90;;;;;;5031895;28;20555;-86
2021/04/03 06:24:24;;;;;;;4.63;3.30;;;5.60;56.30;;;;;;5039853;28;20192;-86
2021/04/03 06:26:59;;;;;;;5.25;3.55;;;5.50;56.10;;;;;;5038329;28;20270;-86
2021/04/03 06:29:29;;;;;;;6.93;4.13;;;5.40;56.20;;;;;;5044276;28;20693;-84
2021/04/03 06:31:57;;;;;;;6.15;3.20;;;5.30;56.40;;;;;;5030914;28;20196;-84
2021/04/03 06:34:37;;;;;;;4.10;3.55;;;5.50;56.50;;;;;;5043006;28;20229;-83
2021/04/03 06:37:05;;;;;;;3.83;3.20;;;5.70;56.30;;;;;;5031735;28;20243;-84
2021/04/03 06:39:50;;;;;;;5.65;4.10;;;5.50;56.10;;;;;;5035324;28;20201;-83
2021/04/03 06:42:35;;;;;;;7.28;4.28;;;5.60;56.40;;;;;;5035995;28;20296;-86
2021/04/03 06:45:22;;;;;;;4.78;3.45;;;5.80;56.10;;;;;;5058418;28;20191;-84
2021/04/03 06:47:50;;;;;;;3.63;2.97;;;5.50;56.10;;;;;;5030169;28;20295;-86
2021/04/03 06:50:18;;;;;;;4.35;3.45;;;5.80;56.30;;;;;;5030474;28;20212;-84
2021/04/03 06:52:45;;;;;;;4.05;3.05;;;5.90;56.30;;;;;;5028679;28;20231;-84
2021/04/03 06:55:14;;;;;;;4.32;3.90;;;5.90;55.60;;;;;;5042486;28;20772;-84
2021/04/03 06:57:42;;;;;;;4.15;3.63;;;6.00;56.20;;;;;;5065315;28;20200;-85
2021/04/03 07:00:10;;;;;;;7.35;4.00;;;5.70;55.50;;;;;;5074150;28;20195;-85
2021/04/03 07:02:45;;;;;;;4.90;4.10;;;5.40;56.20;;;;;;5054311;28;20208;-85
2021/04/03 07:05:14;;;;;;;5.90;4.30;;;5.80;56.80;;;;;;5050559;28;20202;-84
2021/04/03 07:07:43;;;;;;;6.03;4.57;;;6.20;56.40;;;;;;5040706;28;20196;-85
2021/04/03 07:10:13;;;;;;;5.15;4.22;;;6.40;55.60;;;;;;5048300;28;20603;-85
2021/04/03 07:12:40;;;;;;;4.60;4.20;;;6.40;55.30;;;;;;5045427;28;20200;-85
2021/04/03 07:15:08;;;;;;;5.18;3.90;;;6.30;55.40;;;;;;5037683;28;20287;-85
2021/04/03 07:17:39;;;;;;;4.85;3.90;;;6.20;55.30;;;;;;5045847;28;20195;-84
2021/04/03 07:20:10;;;;;;;6.43;3.80;;;6.00;55.40;;;;;;5043859;28;20196;-85
2021/04/03 07:22:37;;;;;;;6.65;3.70;;;5.90;55.60;;;;;;5039847;28;20188;-85
2021/04/03 07:25:08;;;;;;;3.50;3.20;;;5.80;56.00;;;;;;5041447;28;20204;-85
2021/04/03 07:27:38;;;;;;;5.70;3.55;;;5.60;56.20;;;;;;5041265;28;20275;-85
2021/04/03 07:30:06;;;;;;;4.15;3.13;;;5.90;56.40;;;;;;5039849;28;20195;-85
2021/04/03 07:32:38;;;;;;;6.47;3.75;;;6.20;56.30;;;;;;5049366;28;20188;-85
2021/04/03 07:35:25;;;;;;;4.75;3.00;;;6.40;55.40;;;;;;5060447;28;20207;-85
2021/04/03 07:37:53;;;;;;;4.00;3.70;;;5.90;55.30;;;;;;5060070;28;20654;-85
2021/04/03 07:40:54;;;;;;;4.82;3.30;;;5.80;55.60;;;;;;5054683;28;20570;-85
2021/04/03 07:43:39;;;;;;;3.63;3.30;;;5.90;56.10;;;;;;5007530;28;20590;-84
2021/04/03 07:46:09;;;;;;;4.10;3.65;;;6.00;55.50;;;;;;4991425;28;20784;-85
2021/04/03 07:48:57;;;;;;;4.70;3.35;;;6.10;55.70;;;;;;5024896;28;20248;-85
2021/04/03 07:51:45;;;;;;;3.97;3.33;;;6.00;55.50;;;;;;5047057;28;20338;-86
2021/04/03 07:54:31;;;;;;;3.65;2.85;;;6.20;55.50;;;;;;5031247;28;20553;-85
2021/04/03 07:57:08;;;;;;;3.63;3.20;;;6.90;55.60;;;;;;5031780;28;20239;-84
2021/04/03 07:59:54;;;;;;;4.63;3.15;;;7.40;55.20;;;;;;5034798;28;20204;-84
2021/04/03 08:02:27;;;;;;;3.63;3.00;;;8.10;53.90;;;;;;5052928;28;20287;-84
2021/04/03 08:04:56;;;;;;;4.05;3.28;;;7.80;51.80;;;;;;5049040;28;20676;-84
2021/04/03 08:07:24;;;;;;;8.88;3.30;;;7.80;52.30;;;;;;5040275;28;20196;-85
2021/04/03 08:09:51;;;;;;;8.80;3.70;;;8.40;52.50;;;;;;5044277;28;20197;-84
2021/04/03 08:12:25;;;;;;;4.10;3.35;;;8.60;51.70;;;;;;5040596;28;20192;-84
2021/04/03 08:14:57;;;;;;;4.53;2.75;;;8.70;51.40;;;;;;5042918;28;20651;-85
2021/04/03 08:17:24;;;;;;;4.32;3.75;;;8.00;50.70;;;;;;5034771;28;20193;-85
2021/04/03 08:19:51;;;;;;;5.60;3.10;;;7.40;51.20;;;;;;5038061;28;20211;-84
2021/04/03 08:22:18;;;;;;;4.25;3.05;;;7.00;52.20;;;;;;5052964;28;20203;-85
2021/04/03 08:25:00;;;;;;;3.25;2.42;;;6.80;52.60;;;;;;5049871;28;20200;-84
2021/04/03 08:27:38;;;;;;;5.63;2.70;;;7.10;53.00;;;;;;5033450;28;20590;-85
2021/04/03 08:30:21;;;;;;;8.23;2.97;;;7.40;52.60;;;;;;5037336;28;20231;-84
2021/04/03 08:33:05;;;;;;;3.47;2.72;;;7.70;52.10;;;;;;5044007;28;20226;-85
2021/04/03 08:35:31;;;;;;;5.25;2.67;;;7.90;51.00;;;;;;5034518;28;20232;-84
2021/04/03 08:38:13;;;;;;;3.97;2.47;;;8.10;50.70;;;;;;5034623;28;20204;-85
2021/04/03 08:40:41;;;;;;;7.07;2.55;;;7.90;50.20;;;;;;5043885;28;20204;-85
2021/04/03 08:43:08;;;;;;;3.38;2.95;;;7.60;50.80;;;;;;5038260;28;20200;-85
2021/04/03 08:45:36;;;;;;;5.28;2.60;;;7.50;50.90;;;;;;5049196;28;20211;-86
2021/04/03 08:48:03;;;;;;;8.68;2.60;;;7.70;51.40;;;;;;5040860;28;20220;-85
2021/04/03 08:50:30;;;;;;;4.72;2.70;;;7.60;51.30;;;;;;5043342;28;20208;-84
2021/04/03 08:53:00;;;;;;;4.10;2.97;;;7.60;52.00;;;;;;5033018;28;20196;-84
2021/04/03 08:55:28;;;;;;;3.80;3.15;;;8.00;51.60;;;;;;5047823;28;20712;-85
2021/04/03 08:57:56;;;;;;;4.18;2.30;;;8.10;51.60;;;;;;5042785;28;20223;-83
2021/04/03 09:00:24;;;;;;;8.77;3.05;;;7.80;51.00;;;;;;5034009;28;20247;-85
2021/04/03 09:02:52;;;;;;;2.80;2.50;;;7.80;51.60;;;;;;5038319;28;20203;-85
2021/04/03 09:05:20;;;;;;;3.22;2.80;;;7.60;50.90;;;;;;5047283;28;20220;-84
2021/04/03 09:07:47;;;;;;;3.67;2.85;;;7.20;50.90;;;;;;5035983;28;20205;-85
2021/04/03 09:10:15;;;;;;;2.70;2.50;;;7.30;51.50;;;;;;5035380;28;20193;-85
2021/04/03 09:12:42;;;;;;;3.60;3.28;;;7.60;52.30;;;;;;5032538;28;20208;-85
2021/04/03 09:15:10;;;;;;;3.28;2.53;;;8.20;52.00;;;;;;5048092;28;20215;-85
2021/04/03 09:17:47;;;;;;;3.70;2.53;;;8.00;50.90;;;;;;5042406;28;20220;-84
2021/04/03 09:20:20;;;;;;;2.72;2.53;;;8.20;51.40;;;;;;5043109;28;20196;-84
2021/04/03 09:22:47;;;;;;;3.85;2.40;;;8.70;50.60;;;;;;5052023;28;20212;-84
2021/04/03 09:25:15;;;;;;;5.60;3.00;;;9.10;50.10;;;;;;5038482;28;20543;-85
2021/04/03 09:27:42;;;;;;;4.35;2.47;;;9.60;50.30;;;;;;5038484;28;20204;-86
2021/04/03 09:30:11;;;;;;;4.50;2.95;;;9.80;48.70;;;;;;5038063;28;20250;-85
2021/04/03 09:32:42;;;;;;;3.05;2.00;;;9.00;48.30;;;;;;5036433;28;20266;-84
2021/04/03 09:35:11;;;;;;;4.30;2.78;;;9.00;49.50;;;;;;5039182;28;20286;-85
2021/04/03 09:37:38;;;;;;;4.20;2.90;;;9.50;49.40;;;;;;5041441;28;20200;-84
2021/04/03 09:40:07;;;;;;;3.13;2.40;;;9.70;47.90;;;;;;5042615;28;20263;-84
2021/04/03 09:42:34;;;;;;;5.20;3.25;;;9.50;48.00;;;;;;5031511;28;20201;-83
2021/04/03 09:45:04;;;;;;;3.47;2.55;;;9.00;48.10;;;;;;5034117;28;20205;-85
2021/04/03 09:47:31;;;;;;;5.15;2.30;;;9.40;48.40;;;;;;5032759;28;20193;-85
2021/04/03 09:49:57;;;;;;;3.70;2.53;;;9.70;47.50;;;;;;5042959;28;20911;-84
2021/04/03 09:52:26;;;;;;;4.45;2.70;;;9.90;47.10;;;;;;5035663;28;20207;-85
2021/04/03 09:54:52;;;;;;;2.60;2.20;;;10.00;45.70;;;;;;5042312;28;20565;-85
2021/04/03 09:57:20;;;;;;;2.78;2.40;;;10.00;45.30;;;;;;5049609;28;20204;-85
2021/04/03 09:59:46;;;;;;;4.70;2.38;;;9.80;46.00;;;;;;5049305;28;20535;-85
2021/04/03 10:02:13;;;;;;;2.97;2.40;;;10.10;45.30;;;;;;5044238;28;20250;-85
2021/04/03 10:04:40;;;;;;;4.65;2.80;;;10.20;45.20;;;;;;5053965;28;20192;-85
2021/04/03 10:07:06;;;;;;;2.55;2.35;;;10.20;44.80;;;;;;5032241;28;20184;-85
2021/04/03 10:09:34;;;;;;;6.43;3.10;;;10.30;45.30;;;;;;5036684;28;20192;-85
2021/04/03 10:12:00;;;;;;;2.67;2.28;;;10.60;46.60;;;;;;5044425;28;20597;-85
2021/04/03 10:14:27;;;;;;;4.25;2.60;;;10.80;44.70;;;;;;5031960;28;20197;-85
2021/04/03 10:16:53;;;;;;;5.35;2.42;;;11.00;44.40;;;;;;5030901;28;20231;-85
2021/04/03 10:19:20;;;;;;;5.00;2.47;;;11.20;44.90;;;;;;5046428;28;20238;-85
2021/04/03 10:21:46;;;;;;;2.65;2.25;;;11.20;44.40;;;;;;5031492;28;20208;-83
2021/04/03 10:24:13;;;;;;;3.45;2.72;;;11.20;44.10;;;;;;5042648;28;20203;-83
2021/04/03 10:26:40;;;;;;;4.80;2.33;;;11.30;43.60;;;;;;5049218;28;20211;-85
2021/04/03 10:29:07;;;;;;;2.42;2.22;;;11.20;43.50;;;;;;5031191;28;21288;-86
2021/04/03 10:31:33;;;;;;;4.73;2.63;;;11.50;43.10;;;;;;5030890;28;20204;-85
2021/04/03 10:34:00;;;;;;;2.20;2.10;;;11.50;43.20;;;;;;5032225;28;20623;-85
2021/04/03 10:36:26;;;;;;;7.17;2.40;;;11.60;43.20;;;;;;5037030;28;20735;-85
2021/04/03 10:38:53;;;;;;;2.35;2.15;;;11.70;43.40;;;;;;5050126;28;21103;-85
2021/04/03 10:41:19;;;;;;;4.20;2.77;;;11.50;41.90;;;;;;5051137;28;20235;-86
2021/04/03 10:43:47;;;;;;;3.13;2.30;;;11.50;42.50;;;;;;5032594;28;21194;-86
2021/04/03 10:46:14;;;;;;;5.57;2.90;;;11.60;42.50;;;;;;5051307;28;20748;-85
2021/04/03 10:48:40;;;;;;;3.65;2.60;;;11.80;43.50;;;;;;5047042;28;20642;-85
2021/04/03 10:51:07;;;;;;;3.67;2.83;;;11.70;43.40;;;;;;5032389;28;20205;-83
2021/04/03 10:53:33;;;;;;;2.73;2.47;;;12.00;42.70;;;;;;5030560;28;20714;-86
2021/04/03 10:56:00;;;;;;;3.20;2.80;;;12.00;41.60;;;;;;5031177;28;20658;-84
2021/04/03 10:58:27;;;;;;;3.30;2.37;;;12.10;41.90;;;;;;5046852;28;20626;-86
2021/04/03 11:00:54;;;;;;;3.23;2.40;;;12.30;41.60;;;;;;5049181;28;20626;-86
2021/04/03 11:03:20;;;;;;;4.37;2.67;;;12.50;42.00;;;;;;5055236;28;20983;-83
2021/04/03 11:05:47;;;;;;;3.30;3.00;;;12.80;41.60;;;;;;5041939;28;20635;-86
2021/04/03 11:08:13;;;;;;;3.40;2.60;;;12.40;41.70;;;;;;5030425;28;20714;-86
2021/04/03 11:10:40;;;;;;;10.10;2.90;;;12.20;41.30;;;;;;5045885;28;20626;-86
2021/04/03 11:13:06;;;;;;;4.53;2.77;;;12.30;41.80;;;;;;5043862;28;20620;-86
2021/04/03 11:15:33;;;;;;;5.30;3.57;;;12.50;42.10;;;;;;5031657;28;20666;-86
2021/04/03 11:18:00;;;;;;;4.67;2.87;;;12.60;41.80;;;;;;5036140;28;20619;-86
2021/04/03 11:20:27;;;;;;;5.40;2.77;;;12.70;40.80;;;;;;5042005;28;20629;-86
2021/04/03 11:22:53;;;;;;;4.43;3.03;;;13.10;40.60;;;;;;5052334;28;21023;-85
2021/04/03 11:25:20;;;;;;;4.63;3.03;;;13.20;40.80;;;;;;5052688;28;20653;-86
2021/04/03 11:27:46;;;;;;;3.10;2.30;;;13.10;39.90;;;;;;5054465;28;20618;-86
2021/04/03 11:30:14;;;;;;;2.87;2.20;;;12.90;40.00;;;;;;5041035;28;20623;-86
2021/04/03 11:32:41;;;;;;;6.50;3.00;;;13.10;40.20;;;;;;5041932;28;20639;-86
2021/04/03 11:35:10;;;;;;;3.73;2.37;;;12.50;40.70;;;;;;5041011;28;20650;-87
2021/04/03 11:37:37;;;;;;;2.20;2.00;;;12.70;40.20;;;;;;5032767;28;20620;-87
2021/04/03 11:40:06;;;;;;;13.13;6.83;;;11.90;40.00;;;;;;5036092;28;20627;-87
2021/04/03 11:42:32;;;;;;;5.37;3.23;;;11.50;40.90;;;;;;5033933;28;21186;-86
2021/04/03 11:44:59;;;;;;;3.60;2.20;;;11.30;41.50;;;;;;5037729;28;20618;-85
2021/04/03 11:47:26;;;;;;;3.20;1.73;;;11.10;42.40;;;;;;5060434;28;20968;-88
2021/04/03 11:49:54;;;;;;;5.90;2.30;;;11.30;41.80;;;;;;5049215;28;20634;-86
2021/04/03 11:52:21;;;;;;;1.77;1.60;;;12.00;42.60;;;;;;5056733;28;21177;-85
2021/04/03 11:54:48;;;;;;;2.80;2.30;;;12.70;39.80;;;;;;5052079;28;21352;-85
2021/04/03 11:57:14;;;;;;;2.20;2.00;;;12.70;39.90;;;;;;5050721;28;20611;-85
2021/04/03 11:59:41;;;;;;;3.00;2.70;;;13.20;38.50;;;;;;5041570;28;20630;-85
2021/04/03 12:02:08;;;;;;;2.70;2.00;;;12.70;38.40;;;;;;5056931;28;20618;-85
2021/04/03 12:04:34;;;;;;;2.80;1.93;;;12.60;39.40;;;;;;5072374;28;20646;-84
2021/04/03 12:07:01;;;;;;;3.47;2.13;;;12.70;38.70;;;;;;5058369;28;20673;-85
2021/04/03 12:09:28;;;;;;;2.30;2.10;;;12.70;38.80;;;;;;5055311;28;21332;-85
2021/04/03 12:11:54;;;;;;;2.00;1.80;;;13.00;38.80;;;;;;5055501;28;20626;-84
2021/04/03 12:14:21;;;;;;;4.67;2.67;;;13.20;39.30;;;;;;5037520;28;20618;-84
2021/04/03 12:16:47;;;;;;;5.20;2.50;;;13.30;38.80;;;;;;5037313;28;21025;-84
2021/04/03 12:19:14;;;;;;;2.30;2.10;;;13.50;39.10;;;;;;5051115;28;20619;-85
2021/04/03 12:21:40;;;;;;;3.63;2.40;;;13.70;39.10;;;;;;5037855;28;21241;-86
2021/04/03 12:24:08;;;;;;;8.03;3.43;;;13.20;39.20;;;;;;5051446;28;20610;-85
2021/04/03 12:26:35;;;;;;;4.23;2.70;;;12.90;39.80;;;;;;5047059;28;20616;-85
2021/04/03 12:29:02;;;;;;;4.13;2.50;;;12.90;38.70;;;;;;5041293;28;20621;-85
2021/04/03 12:31:28;;;;;;;2.57;2.07;;;13.00;39.50;;;;;;5055506;28;20676;-86
2021/04/03 12:33:55;;;;;;;3.10;2.30;;;13.00;38.60;;;;;;5040865;28;20622;-85
2021/04/03 12:36:22;;;;;;;4.57;1.90;;;13.10;37.10;;;;;;5056536;28;20656;-87
2021/04/03 12:38:50;;;;;;;3.77;2.43;;;13.20;37.50;;;;;;5038694;28;20626;-85
2021/04/03 12:41:17;;;;;;;3.80;2.50;;;13.50;38.40;;;;;;5038397;28;20615;-86
2021/04/03 12:43:44;;;;;;;3.17;1.97;;;13.70;36.90;;;;;;5056168;28;20631;-86
2021/04/03 12:46:11;;;;;;;4.10;2.53;;;13.50;36.70;;;;;;5046417;28;20638;-85
2021/04/03 12:48:37;;;;;;;3.33;1.93;;;13.30;37.60;;;;;;5043880;28;20634;-85
2021/04/03 12:51:05;;;;;;;7.47;2.70;;;12.90;37.80;;;;;;5042212;28;20748;-86
2021/04/03 12:53:32;;;;;;;9.63;4.37;;;12.90;38.80;;;;;;5058784;28;20675;-86
2021/04/03 12:55:58;;;;;;;2.33;2.13;;;12.80;38.80;;;;;;5059678;28;20739;-84
2021/04/03 12:58:25;;;;;;;5.53;2.90;;;12.80;38.50;;;;;;5060754;28;20603;-85
2021/04/03 13:00:52;;;;;;;2.70;2.03;;;12.60;39.10;;;;;;5060305;28;20614;-86
2021/04/03 13:03:19;;;;;;;4.10;2.90;;;12.20;38.80;;;;;;5056759;28;20614;-86